Wetterdaten: Woche 07.01.19 - 13.01.19 (KW2)
Datum Zeit Temp. Aussen Temp. o. S. +5cm Feuchte Auss Luftdruck Regen Sonnenschein Regendauer Solar Windben Empfang
07.01.2019 00:00 4,2 C 3,3 C 2,8 C 97 % 1032,1 hPa 0,0 l/m 0,00 h 0,00 h 0 W/m 3,3 km/h (1 Bft) 97,42 %
07.01.2019 01:00 4,1 C 3,3 C 2,8 C 97 % 1032,1 hPa 0,0 l/m 0,00 h 0,00 h 0 W/m 2,5 km/h (1 Bft) 97,43 %
07.01.2019 02:00 3,8 C 2,8 C 2,2 C 97 % 1032,2 hPa 0,0 l/m 0,00 h 0,00 h 0 W/m 1,6 km/h (1 Bft) 96,87 %
07.01.2019 03:00 3,1 C 1,7 C 1,0 C 97 % 1032,2 hPa 0,0 l/m 0,00 h 0,00 h 0 W/m 0,0 km/h (0 Bft) 98,72 %
07.01.2019 04:00 2,2 C 0,6 C -0,4 C 96 % 1032,0 hPa 0,0 l/m 0,00 h 0,00 h 0 W/m 0,0 km/h (0 Bft) 97,83 %
07.01.2019 05:00 1,4 C 0,6 C -0,4 C 96 % 1031,7 hPa 0,0 l/m 0,00 h 0,00 h 0 W/m 0,0 km/h (0 Bft) 96,07 %
07.01.2019 06:00 1,4 C 0,6 C -0,4 C 97 % 1031,4 hPa 0,0 l/m 0,00 h 0,00 h 0 W/m 0,0 km/h (0 Bft) 99,23 %
07.01.2019 07:00 2,1 C 2,1 C 1,5 C 97 % 1031,3 hPa 0,0 l/m 0,00 h 0,00 h 0 W/m 3,2 km/h (1 Bft) 96,13 %
07.01.2019 08:00 2,8 C 2,5 C 1,9 C 98 % 1031,5 hPa 0,0 l/m 0,00 h 0,00 h 6 W/m 3,2 km/h (1 Bft) 97,59 %
07.01.2019 09:00 3,4 C 3,2 C 2,7 C 98 % 1031,2 hPa 0,2 l/m 0,03 h 0,00 h 32 W/m 9,9 km/h (2 Bft) 96,43 %
07.01.2019 10:00 4,1 C 3,9 C 3,3 C 98 % 1030,9 hPa 0,0 l/m 0,00 h 0,00 h 47 W/m 8,9 km/h (2 Bft) 95,93 %
07.01.2019 11:00 4,5 C 4,4 C 3,8 C 98 % 1030,5 hPa 0,0 l/m 0,00 h 0,00 h 33 W/m 11,4 km/h (2 Bft) 97,28 %
07.01.2019 12:00 4,9 C 4,4 C 3,9 C 98 % 1029,8 hPa 0,0 l/m 0,00 h 0,00 h 35 W/m 13,0 km/h (3 Bft) 96,30 %
07.01.2019 13:00 5,3 C 4,5 C 4,3 C 98 % 1028,9 hPa 0,0 l/m 0,00 h 0,27 h 26 W/m 14,6 km/h (3 Bft) 97,93 %
07.01.2019 14:00 5,5 C 5,0 C 4,4 C 98 % 1028,0 hPa 0,0 l/m 0,00 h 0,33 h 26 W/m 14,3 km/h (3 Bft) 97,80 %
07.01.2019 15:00 5,7 C 5,0 C 4,4 C 98 % 1027,3 hPa 0,0 l/m 0,00 h 0,13 h 13 W/m 13,6 km/h (3 Bft) 97,24 %
07.01.2019 16:00 6,0 C 5,5 C 5,0 C 99 % 1026,5 hPa 0,0 l/m 0,00 h 0,27 h 6 W/m 14,5 km/h (3 Bft) 97,72 %
07.01.2019 17:00 6,4 C 5,8 C 5,2 C 99 % 1025,4 hPa 0,2 l/m 0,00 h 0,00 h 0 W/m 18,1 km/h (3 Bft) 96,86 %
07.01.2019 18:00 6,8 C 6,1 C 5,6 C 99 % 1024,1 hPa 0,6 l/m 0,00 h 0,70 h 0 W/m 17,1 km/h (3 Bft) 97,39 %
07.01.2019 19:00 7,1 C 6,1 C 5,6 C 99 % 1023,1 hPa 0,6 l/m 0,00 h 0,97 h 0 W/m 17,6 km/h (3 Bft) 97,01 %
07.01.2019 20:00 7,2 C 6,4 C 5,7 C 98 % 1021,9 hPa 0,0 l/m 0,00 h 0,37 h 0 W/m 21,4 km/h (4 Bft) 97,65 %
07.01.2019 21:00 7,3 C 6,6 C 6,0 C 98 % 1020,7 hPa 0,2 l/m 0,00 h 0,30 h 0 W/m 21,1 km/h (4 Bft) 97,44 %
07.01.2019 22:00 7,4 C 6,7 C 6,1 C 98 % 1019,6 hPa 0,4 l/m 0,00 h 0,30 h 0 W/m 19,8 km/h (4 Bft) 95,94 %
07.01.2019 23:00 7,7 C 6,9 C 6,4 C 99 % 1018,4 hPa 1,0 l/m 0,00 h 0,93 h 0 W/m 18,6 km/h (3 Bft) 99,22 %
08.01.2019 00:00 7,9 C 7,2 C 6,7 C 99 % 1017,3 hPa 0,8 l/m 0,00 h 0,57 h 0 W/m 18,9 km/h (3 Bft) 96,18 %
08.01.2019 01:00 7,8 C 6,8 C 6,3 C 99 % 1017,1 hPa 1,2 l/m 0,00 h 0,77 h 0 W/m 23,0 km/h (4 Bft) 96,73 %
08.01.2019 02:00 6,6 C 5,7 C 5,1 C 98 % 1016,9 hPa 0,0 l/m 0,00 h 0,07 h 0 W/m 19,5 km/h (3 Bft) 99,79 %
08.01.2019 03:00 6,0 C 5,1 C 4,6 C 97 % 1016,7 hPa 0,0 l/m 0,00 h 0,00 h 0 W/m 16,4 km/h (3 Bft) 95,51 %
08.01.2019 04:00 5,6 C 4,4 C 4,2 C 95 % 1016,1 hPa 0,0 l/m 0,00 h 0,00 h 0 W/m 16,5 km/h (3 Bft) 97,94 %
08.01.2019 05:00 5,6 C 4,9 C 4,3 C 94 % 1015,3 hPa 0,0 l/m 0,00 h 0,00 h 0 W/m 19,0 km/h (3 Bft) 98,94 %
08.01.2019 06:00 5,6 C 5,1 C 4,4 C 93 % 1014,5 hPa 0,0 l/m 0,00 h 0,00 h 0 W/m 21,7 km/h (4 Bft) 95,58 %
08.01.2019 07:00 5,7 C 5,3 C 4,4 C 93 % 1013,9 hPa 0,0 l/m 0,00 h 0,20 h 0 W/m 22,5 km/h (4 Bft) 97,36 %
08.01.2019 08:00 5,8 C 5,2 C 4,2 C 92 % 1013,9 hPa 0,2 l/m 0,00 h 0,27 h 6 W/m 26,2 km/h (4 Bft) 97,72 %
08.01.2019 09:00 5,6 C 5,3 C 4,0 C 93 % 1013,5 hPa 0,0 l/m 0,10 h 0,13 h 32 W/m 22,4 km/h (4 Bft) 96,87 %
08.01.2019 10:00 6,0 C 5,7 C 4,8 C 91 % 1013,5 hPa 0,0 l/m 0,00 h 0,70 h 39 W/m 24,8 km/h (4 Bft) 97,56 %
08.01.2019 11:00 6,6 C 6,4 C 5,6 C 90 % 1013,3 hPa 0,0 l/m 0,00 h 0,17 h 45 W/m 28,7 km/h (4 Bft) 97,16 %
08.01.2019 12:00 7,1 C 7,0 C 6,3 C 89 % 1012,8 hPa 0,0 l/m 0,00 h 0,40 h 80 W/m 30,8 km/h (5 Bft) 96,69 %
08.01.2019 13:00 7,0 C 6,5 C 5,4 C 89 % 1012,8 hPa 0,2 l/m 0,00 h 0,87 h 54 W/m 31,2 km/h (5 Bft) 95,55 %
08.01.2019 14:00 6,4 C 5,5 C 4,5 C 92 % 1012,9 hPa 1,6 l/m 0,17 h 0,90 h 57 W/m 30,6 km/h (5 Bft) 99,04 %
08.01.2019 15:00 6,1 C 5,4 C 4,9 C 94 % 1013,1 hPa 0,0 l/m 0,27 h 0,80 h 70 W/m 25,0 km/h (4 Bft) 97,43 %
08.01.2019 16:00 6,1 C 4,7 C 4,4 C 91 % 1013,7 hPa 0,2 l/m 0,00 h 0,43 h 9 W/m 29,2 km/h (5 Bft) 95,73 %
08.01.2019 17:00 5,7 C 4,5 C 4,4 C 90 % 1013,9 hPa 0,0 l/m 0,00 h 0,03 h 0 W/m 20,4 km/h (4 Bft) 99,07 %
08.01.2019 18:00 6,0 C 5,0 C 4,6 C 87 % 1014,0 hPa 0,0 l/m 0,00 h 0,03 h 0 W/m 33,2 km/h (5 Bft) 97,05 %
08.01.2019 19:00 5,9 C 5,1 C 4,4 C 86 % 1014,1 hPa 0,0 l/m 0,00 h 0,07 h 0 W/m 27,4 km/h (4 Bft) 97,72 %
08.01.2019 20:00 5,8 C 5,3 C 4,4 C 85 % 1014,3 hPa 0,0 l/m 0,00 h 0,17 h 0 W/m 28,8 km/h (4 Bft) 96,66 %
08.01.2019 21:00 5,3 C 4,4 C 3,5 C 88 % 1014,4 hPa 0,0 l/m 0,00 h 0,37 h 0 W/m 23,8 km/h (4 Bft) 96,94 %
08.01.2019 22:00 4,8 C 4,2 C 3,6 C 89 % 1014,5 hPa 0,0 l/m 0,00 h 0,00 h 0 W/m 24,4 km/h (4 Bft) 99,29 %
08.01.2019 23:00 4,6 C 4,0 C 3,1 C 92 % 1014,6 hPa 0,0 l/m 0,00 h 0,57 h 0 W/m 26,7 km/h (4 Bft) 95,30 %
09.01.2019 00:00 4,4 C 3,9 C 3,1 C 91 % 1014,2 hPa 0,0 l/m 0,00 h 0,40 h 0 W/m 26,0 km/h (4 Bft) 97,91 %
09.01.2019 01:00 4,4 C 3,8 C 3,2 C 91 % 1013,9 hPa 0,0 l/m 0,00 h 0,30 h 0 W/m 20,5 km/h (4 Bft) 99,15 %
09.01.2019 02:00 4,0 C 3,3 C 2,8 C 91 % 1014,0 hPa 0,0 l/m 0,00 h 0,00 h 0 W/m 15,6 km/h (3 Bft) 95,23 %
09.01.2019 03:00 3,5 C 3,0 C 2,3 C 90 % 1014,3 hPa 0,0 l/m 0,00 h 0,20 h 0 W/m 20,4 km/h (4 Bft) 97,58 %
09.01.2019 04:00 3,4 C 2,5 C 2,0 C 91 % 1014,4 hPa 0,0 l/m 0,00 h 0,03 h 0 W/m 21,7 km/h (4 Bft) 98,45 %
09.01.2019 05:00 2,6 C 1,8 C 1,3 C 93 % 1014,3 hPa 0,0 l/m 0,00 h 0,00 h 0 W/m 11,0 km/h (2 Bft) 97,55 %
09.01.2019 06:00 2,2 C 1,6 C 1,1 C 94 % 1014,3 hPa 0,0 l/m 0,00 h 0,00 h 0 W/m 13,4 km/h (3 Bft) 97,82 %
09.01.2019 07:00 2,0 C 1,1 C 0,7 C 94 % 1014,4 hPa 0,0 l/m 0,00 h 0,00 h 0 W/m 11,6 km/h (2 Bft) 97,14 %
09.01.2019 08:00 1,9 C 1,3 C 0,8 C 95 % 1014,9 hPa 0,0 l/m 0,00 h 0,00 h 8 W/m 11,6 km/h (2 Bft) 95,22 %
09.01.2019 09:00 2,1 C 2,1 C 1,3 C 96 % 1015,5 hPa 0,0 l/m 0,03 h 0,00 h 32 W/m 10,0 km/h (2 Bft) 97,74 %
09.01.2019 10:00 3,1 C 6,8 C 2,2 C 96 % 1016,2 hPa 0,0 l/m 0,80 h 0,00 h 138 W/m 17,5 km/h (3 Bft) 95,31 %
09.01.2019 11:00 4,8 C 9,1 C 3,7 C 90 % 1016,4 hPa 0,0 l/m 0,87 h 0,00 h 205 W/m 23,6 km/h (4 Bft) 99,34 %
09.01.2019 12:00 6,0 C 10,6 C 5,5 C 82 % 1016,3 hPa 0,0 l/m 0,77 h 0,00 h 235 W/m 26,6 km/h (4 Bft) 97,10 %
09.01.2019 13:00 6,1 C 6,9 C 5,0 C 77 % 1016,2 hPa 0,0 l/m 0,10 h 0,00 h 126 W/m 29,3 km/h (5 Bft) 99,24 %
09.01.2019 14:00 6,0 C 8,5 C 4,7 C 74 % 1016,5 hPa 0,0 l/m 0,70 h 0,00 h 189 W/m 31,1 km/h (5 Bft) 96,53 %
09.01.2019 15:00 5,7 C 5,4 C 4,2 C 72 % 1016,9 hPa 0,2 l/m 0,03 h 0,00 h 48 W/m 28,0 km/h (4 Bft) 96,72 %
09.01.2019 16:00 4,8 C 4,0 C 3,1 C 74 % 1017,5 hPa 0,0 l/m 0,13 h 0,00 h 18 W/m 23,6 km/h (4 Bft) 98,57 %
09.01.2019 17:00 3,9 C 3,2 C 2,2 C 77 % 1018,1 hPa 0,0 l/m 0,00 h 0,00 h 0 W/m 24,7 km/h (4 Bft) 95,38 %
09.01.2019 18:00 3,5 C 2,8 C 1,9 C 79 % 1018,5 hPa 0,0 l/m 0,00 h 0,00 h 0 W/m 20,6 km/h (4 Bft) 94,55 %
09.01.2019 19:00 3,2 C 2,7 C 1,9 C 81 % 1019,3 hPa 0,0 l/m 0,00 h 0,00 h 0 W/m 19,3 km/h (3 Bft) 84,27 %
09.01.2019 20:00 3,0 C 2,4 C 1,7 C 82 % 1019,9 hPa 0,0 l/m 0,00 h 0,00 h 0 W/m 19,7 km/h (3 Bft) 85,04 %
09.01.2019 21:00 2,6 C 1,9 C 1,1 C 84 % 1020,4 hPa 0,0 l/m 0,00 h 0,00 h 0 W/m 13,9 km/h (3 Bft) 80,87 %
09.01.2019 22:00 2,1 C 1,2 C 0,6 C 86 % 1020,9 hPa 0,0 l/m 0,00 h 0,00 h 0 W/m 16,0 km/h (3 Bft) 97,35 %
09.01.2019 23:00 1,1 C 0,0 C -0,6 C 88 % 1021,3 hPa 0,0 l/m 0,00 h 0,00 h 0 W/m 8,6 km/h (2 Bft) 96,93 %
10.01.2019 00:00 0,6 C -0,3 C -0,8 C 89 % 1021,7 hPa 0,0 l/m 0,00 h 0,00 h 0 W/m 4,6 km/h (1 Bft) 98,17 %
10.01.2019 01:00 0,2 C -1,1 C -1,7 C 90 % 1022,1 hPa 0,0 l/m 0,00 h 0,00 h 0 W/m 2,7 km/h (1 Bft) 97,08 %
10.01.2019 02:00 -0,5 C -1,6 C -2,2 C 91 % 1022,4 hPa 0,0 l/m 0,00 h 0,00 h 0 W/m 4,2 km/h (1 Bft) 95,52 %
10.01.2019 03:00 -0,7 C -1,3 C -1,9 C 92 % 1022,8 hPa 0,0 l/m 0,00 h 0,00 h 0 W/m 4,1 km/h (1 Bft) 98,93 %
10.01.2019 04:00 -0,8 C -1,7 C -2,1 C 93 % 1023,1 hPa 0,0 l/m 0,00 h 0,00 h 0 W/m 3,4 km/h (1 Bft) 97,59 %
10.01.2019 05:00 -0,9 C -1,7 C -2,2 C 93 % 1023,2 hPa 0,0 l/m 0,00 h 0,00 h 0 W/m 4,2 km/h (1 Bft) 96,01 %
10.01.2019 06:00 -1,0 C -1,7 C -2,1 C 94 % 1023,3 hPa 0,0 l/m 0,00 h 0,00 h 0 W/m 0,4 km/h (0 Bft) 95,83 %
10.01.2019 07:00 -1,1 C -1,7 C -2,0 C 94 % 1023,7 hPa 0,0 l/m 0,00 h 0,00 h 0 W/m 2,8 km/h (1 Bft) 98,72 %
10.01.2019 08:00 -0,8 C -1,1 C -1,7 C 95 % 1024,0 hPa 0,0 l/m 0,00 h 0,00 h 4 W/m 1,9 km/h (1 Bft) 95,72 %
10.01.2019 09:00 -0,5 C -0,8 C -1,1 C 95 % 1024,5 hPa 0,0 l/m 0,00 h 0,00 h 12 W/m 2,8 km/h (1 Bft) 97,02 %
10.01.2019 10:00 -0,2 C -0,3 C -0,7 C 95 % 1025,0 hPa 0,0 l/m 0,00 h 0,00 h 22 W/m 0,0 km/h (0 Bft) 96,76 %
10.01.2019 11:00 0,2 C 0,7 C 0,2 C 95 % 1025,2 hPa 0,0 l/m 0,00 h 0,00 h 57 W/m 1,2 km/h (1 Bft) 98,50 %
10.01.2019 12:00 1,0 C 2,1 C 1,2 C 96 % 1025,2 hPa 0,0 l/m 0,00 h 0,00 h 92 W/m 6,0 km/h (2 Bft) 96,69 %
10.01.2019 13:00 1,9 C 3,1 C 2,1 C 95 % 1024,8 hPa 0,0 l/m 0,00 h 0,00 h 96 W/m 5,2 km/h (1 Bft) 96,37 %
10.01.2019 14:00 2,4 C 2,9 C 2,0 C 92 % 1024,7 hPa 0,0 l/m 0,00 h 0,00 h 83 W/m 5,0 km/h (1 Bft) 97,79 %
10.01.2019 15:00 2,6 C 2,5 C 1,9 C 91 % 1024,8 hPa 0,0 l/m 0,00 h 0,00 h 47 W/m 3,1 km/h (1 Bft) 95,87 %
10.01.2019 16:00 2,3 C 1,5 C 1,1 C 91 % 1024,7 hPa 0,0 l/m 0,00 h 0,00 h 12 W/m 0,5 km/h (0 Bft) 99,08 %
10.01.2019 17:00 1,9 C 1,1 C 0,6 C 91 % 1024,7 hPa 0,0 l/m 0,00 h 0,00 h 0 W/m 0,0 km/h (0 Bft) 97,03 %
10.01.2019 18:00 1,7 C 1,1 C 0,7 C 92 % 1024,8 hPa 0,0 l/m 0,00 h 0,00 h 0 W/m 0,0 km/h (0 Bft) 96,91 %
10.01.2019 19:00 1,8 C 1,1 C 0,8 C 93 % 1024,9 hPa 0,0 l/m 0,00 h 0,00 h 0 W/m 0,1 km/h (0 Bft) 96,52 %
10.01.2019 20:00 1,8 C 1,1 C 0,7 C 93 % 1024,8 hPa 0,0 l/m 0,00 h 0,00 h 0 W/m 0,3 km/h (0 Bft) 97,86 %
10.01.2019 21:00 1,5 C 1,0 C 0,6 C 94 % 1025,0 hPa 0,0 l/m 0,00 h 0,00 h 0 W/m 1,7 km/h (1 Bft) 98,07 %
10.01.2019 22:00 1,3 C 0,6 C 0,2 C 94 % 1025,0 hPa 0,0 l/m 0,00 h 0,30 h 0 W/m 1,5 km/h (1 Bft) 96,51 %
10.01.2019 23:00 1,2 C 0,2 C 0,0 C 94 % 1025,0 hPa 0,0 l/m 0,00 h 0,63 h 0 W/m 0,1 km/h (0 Bft) 96,51 %
11.01.2019 00:00 1,1 C 0,0 C 0,0 C 95 % 1024,6 hPa 0,0 l/m 0,00 h 0,27 h 0 W/m 1,8 km/h (1 Bft) 93,84 %
11.01.2019 01:00 1,1 C 0,5 C 0,0 C 95 % 1024,2 hPa 0,0 l/m 0,00 h 0,40 h 0 W/m 6,0 km/h (2 Bft) 99,15 %
11.01.2019 02:00 1,2 C 0,6 C 0,0 C 96 % 1023,9 hPa 0,2 l/m 0,00 h 0,47 h 0 W/m 7,0 km/h (2 Bft) 95,16 %
11.01.2019 03:00 1,2 C 0,6 C 0,0 C 96 % 1023,4 hPa 0,2 l/m 0,00 h 0,13 h 0 W/m 7,4 km/h (2 Bft) 97,01 %
11.01.2019 04:00 1,4 C 0,8 C 0,6 C 97 % 1022,7 hPa 0,2 l/m 0,00 h 0,00 h 0 W/m 5,5 km/h (1 Bft) 99,15 %
11.01.2019 05:00 1,7 C 1,1 C 0,7 C 97 % 1022,2 hPa 0,2 l/m 0,00 h 0,00 h 0 W/m 4,9 km/h (1 Bft) 96,78 %
11.01.2019 06:00 1,9 C 1,4 C 1,1 C 97 % 1022,0 hPa 0,0 l/m 0,00 h 0,00 h 0 W/m 5,1 km/h (1 Bft) 94,76 %
11.01.2019 07:00 2,2 C 1,7 C 1,1 C 98 % 1021,9 hPa 0,2 l/m 0,00 h 0,17 h 0 W/m 4,1 km/h (1 Bft) 96,79 %
11.01.2019 08:00 2,4 C 1,9 C 1,4 C 98 % 1022,0 hPa 0,2 l/m 0,00 h 0,30 h 0 W/m 3,2 km/h (1 Bft) 97,16 %
11.01.2019 09:00 2,8 C 2,4 C 1,9 C 98 % 1022,0 hPa 0,2 l/m 0,00 h 0,37 h 17 W/m 4,5 km/h (1 Bft) 94,90 %
11.01.2019 10:00 3,3 C 3,0 C 2,4 C 98 % 1022,1 hPa 0,0 l/m 0,00 h 0,00 h 18 W/m 3,7 km/h (1 Bft) 97,12 %
11.01.2019 11:00 4,0 C 3,8 C 3,2 C 99 % 1022,1 hPa 0,0 l/m 0,00 h 0,00 h 46 W/m 3,2 km/h (1 Bft) 92,81 %
11.01.2019 12:00 4,7 C 4,4 C 3,9 C 99 % 1021,9 hPa 0,0 l/m 0,00 h 0,13 h 55 W/m 4,4 km/h (1 Bft) 90,48 %
11.01.2019 13:00 5,4 C 5,0 C 4,4 C 99 % 1021,3 hPa 0,0 l/m 0,00 h 0,00 h 44 W/m 4,3 km/h (1 Bft) 99,03 %
11.01.2019 14:00 5,9 C 5,7 C 5,0 C 99 % 1020,9 hPa 0,2 l/m 0,00 h 0,23 h 35 W/m 4,4 km/h (1 Bft) 98,93 %
11.01.2019 15:00 6,6 C 6,1 C 5,6 C 99 % 1020,7 hPa 0,0 l/m 0,00 h 0,00 h 30 W/m 9,2 km/h (2 Bft) 94,63 %
11.01.2019 16:00 6,7 C 6,1 C 5,5 C 99 % 1020,8 hPa 0,2 l/m 0,00 h 0,23 h 10 W/m 10,1 km/h (2 Bft) 98,49 %
11.01.2019 17:00 6,5 C 5,9 C 5,0 C 100 % 1020,8 hPa 0,0 l/m 0,00 h 0,10 h 0 W/m 11,9 km/h (2 Bft) 97,86 %
11.01.2019 18:00 6,4 C 5,6 C 5,0 C 99 % 1021,2 hPa 0,0 l/m 0,00 h 0,07 h 0 W/m 10,9 km/h (2 Bft) 96,14 %
11.01.2019 19:00 6,4 C 5,6 C 5,0 C 99 % 1021,5 hPa 0,0 l/m 0,00 h 0,03 h 0 W/m 12,0 km/h (2 Bft) 97,23 %
11.01.2019 20:00 6,3 C 5,6 C 5,0 C 99 % 1021,8 hPa 0,0 l/m 0,00 h 0,27 h 0 W/m 11,3 km/h (2 Bft) 97,93 %
11.01.2019 21:00 6,2 C 5,6 C 5,0 C 99 % 1021,9 hPa 0,0 l/m 0,00 h 0,00 h 0 W/m 9,8 km/h (2 Bft) 96,68 %
11.01.2019 22:00 6,2 C 5,6 C 5,0 C 99 % 1022,0 hPa 0,2 l/m 0,00 h 0,47 h 0 W/m 13,3 km/h (3 Bft) 96,53 %
11.01.2019 23:00 6,1 C 5,5 C 4,9 C 99 % 1022,0 hPa 0,2 l/m 0,00 h 0,00 h 0 W/m 11,5 km/h (2 Bft) 99,49 %
12.01.2019 00:00 5,9 C 5,0 C 4,4 C 99 % 1021,9 hPa 0,0 l/m 0,00 h 0,00 h 0 W/m 9,1 km/h (2 Bft) 96,68 %
12.01.2019 01:00 5,8 C 5,0 C 4,4 C 99 % 1022,0 hPa 0,0 l/m 0,00 h 0,37 h 0 W/m 9,4 km/h (2 Bft) 96,28 %
12.01.2019 02:00 5,7 C 5,0 C 4,4 C 99 % 1021,8 hPa 0,2 l/m 0,00 h 0,30 h 0 W/m 10,6 km/h (2 Bft) 99,45 %
12.01.2019 03:00 5,7 C 5,0 C 4,4 C 99 % 1021,5 hPa 0,2 l/m 0,00 h 0,23 h 0 W/m 9,4 km/h (2 Bft) 96,55 %
12.01.2019 04:00 5,5 C 4,9 C 4,3 C 99 % 1021,0 hPa 0,4 l/m 0,00 h 0,40 h 0 W/m 8,4 km/h (2 Bft) 96,88 %
12.01.2019 05:00 5,3 C 4,4 C 3,9 C 99 % 1020,6 hPa 0,0 l/m 0,00 h 0,20 h 0 W/m 10,2 km/h (2 Bft) 98,24 %
12.01.2019 06:00 5,2 C 4,4 C 3,9 C 99 % 1020,5 hPa 0,0 l/m 0,00 h 0,23 h 0 W/m 6,9 km/h (2 Bft) 96,89 %
12.01.2019 07:00 4,9 C 4,4 C 3,9 C 99 % 1020,0 hPa 0,0 l/m 0,00 h 0,00 h 0 W/m 7,9 km/h (2 Bft) 96,71 %
12.01.2019 08:00 4,9 C 4,4 C 3,9 C 99 % 1019,2 hPa 0,0 l/m 0,00 h 0,07 h 0 W/m 11,3 km/h (2 Bft) 97,34 %
12.01.2019 09:00 5,1 C 4,4 C 3,9 C 98 % 1018,6 hPa 0,2 l/m 0,00 h 0,00 h 10 W/m 14,7 km/h (3 Bft) 97,34 %
12.01.2019 10:00 5,6 C 5,0 C 4,3 C 95 % 1017,9 hPa 0,0 l/m 0,00 h 0,00 h 39 W/m 19,4 km/h (3 Bft) 98,28 %
12.01.2019 11:00 5,8 C 5,6 C 4,4 C 92 % 1017,0 hPa 0,0 l/m 0,00 h 0,00 h 27 W/m 17,9 km/h (3 Bft) 95,93 %
12.01.2019 12:00 5,9 C 4,9 C 4,4 C 93 % 1016,0 hPa 0,2 l/m 0,00 h 0,70 h 43 W/m 18,6 km/h (3 Bft) 97,43 %
12.01.2019 13:00 5,9 C 5,0 C 4,4 C 95 % 1014,5 hPa 0,0 l/m 0,00 h 0,43 h 35 W/m 21,3 km/h (4 Bft) 97,58 %
12.01.2019 14:00 6,1 C 5,2 C 4,8 C 96 % 1013,4 hPa 0,4 l/m 0,00 h 0,50 h 25 W/m 20,5 km/h (4 Bft) 97,37 %
12.01.2019 15:00 6,3 C 5,6 C 5,0 C 97 % 1012,6 hPa 0,4 l/m 0,00 h 0,80 h 19 W/m 15,9 km/h (3 Bft) 96,79 %
12.01.2019 16:00 6,6 C 5,9 C 5,4 C 98 % 1012,3 hPa 0,6 l/m 0,00 h 0,67 h 6 W/m 14,0 km/h (3 Bft) 97,65 %
12.01.2019 17:00 6,7 C 6,1 C 5,6 C 98 % 1012,0 hPa 0,4 l/m 0,00 h 0,40 h 0 W/m 13,9 km/h (3 Bft) 97,94 %
12.01.2019 18:00 6,7 C 6,0 C 5,4 C 98 % 1011,6 hPa 0,4 l/m 0,00 h 0,43 h 0 W/m 16,4 km/h (3 Bft) 96,17 %
12.01.2019 19:00 6,4 C 5,6 C 5,0 C 98 % 1011,7 hPa 0,0 l/m 0,00 h 0,40 h 0 W/m 14,9 km/h (3 Bft) 98,93 %
12.01.2019 20:00 6,3 C 5,5 C 5,0 C 98 % 1011,6 hPa 0,0 l/m 0,00 h 0,17 h 0 W/m 13,9 km/h (3 Bft) 97,01 %
12.01.2019 21:00 6,4 C 5,6 C 5,0 C 98 % 1011,4 hPa 0,0 l/m 0,00 h 0,03 h 0 W/m 16,0 km/h (3 Bft) 96,15 %
12.01.2019 22:00 6,3 C 5,5 C 4,8 C 98 % 1011,1 hPa 0,0 l/m 0,00 h 0,07 h 0 W/m 13,5 km/h (3 Bft) 99,64 %
12.01.2019 23:00 6,5 C 5,8 C 5,2 C 98 % 1011,0 hPa 0,0 l/m 0,00 h 0,00 h 0 W/m 12,6 km/h (3 Bft) 96,16 %
13.01.2019 00:00 6,7 C 6,1 C 5,6 C 98 % 1010,8 hPa 0,0 l/m 0,00 h 0,00 h 0 W/m 12,7 km/h (3 Bft) 94,28 %
13.01.2019 01:00 6,9 C 6,3 C 5,6 C 98 % 1010,6 hPa 0,0 l/m 0,00 h 0,00 h 0 W/m 13,2 km/h (3 Bft) 99,22 %
13.01.2019 02:00 7,0 C 6,7 C 5,6 C 97 % 1010,2 hPa 0,0 l/m 0,00 h 0,00 h 0 W/m 12,4 km/h (3 Bft) 96,65 %
13.01.2019 03:00 7,0 C 6,3 C 5,6 C 97 % 1009,5 hPa 0,0 l/m 0,00 h 0,10 h 0 W/m 10,8 km/h (2 Bft) 97,01 %
13.01.2019 04:00 7,1 C 6,1 C 5,6 C 98 % 1009,2 hPa 0,2 l/m 0,00 h 0,50 h 0 W/m 12,6 km/h (3 Bft) 97,80 %
13.01.2019 05:00 7,0 C 6,1 C 5,6 C 98 % 1008,0 hPa 0,0 l/m 0,00 h 0,43 h 0 W/m 15,8 km/h (3 Bft) 97,98 %
13.01.2019 06:00 7,1 C 6,3 C 5,7 C 98 % 1006,9 hPa 0,2 l/m 0,00 h 0,63 h 0 W/m 14,8 km/h (3 Bft) 96,17 %
13.01.2019 07:00 7,3 C 6,7 C 6,1 C 99 % 1006,3 hPa 1,4 l/m 0,00 h 1,00 h 0 W/m 14,2 km/h (3 Bft) 98,44 %
13.01.2019 08:00 7,6 C 6,9 C 6,4 C 99 % 1005,9 hPa 0,8 l/m 0,00 h 1,00 h 0 W/m 14,0 km/h (3 Bft) 98,36 %
13.01.2019 09:00 8,0 C 7,2 C 6,8 C 99 % 1005,5 hPa 0,4 l/m 0,00 h 0,97 h 7 W/m 18,8 km/h (3 Bft) 94,95 %
13.01.2019 10:00 8,2 C 7,3 C 7,2 C 99 % 1005,0 hPa 0,2 l/m 0,00 h 0,30 h 13 W/m 18,6 km/h (3 Bft) 99,22 %
13.01.2019 11:00 8,2 C 7,7 C 7,2 C 99 % 1004,3 hPa 0,0 l/m 0,00 h 0,40 h 22 W/m 17,8 km/h (3 Bft) 97,65 %
13.01.2019 12:00 8,3 C 7,8 C 7,2 C 99 % 1003,3 hPa 1,2 l/m 0,00 h 1,00 h 37 W/m 21,8 km/h (4 Bft) 96,06 %
13.01.2019 13:00 8,4 C 7,8 C 7,2 C 99 % 1002,4 hPa 0,4 l/m 0,00 h 0,17 h 34 W/m 20,6 km/h (4 Bft) 99,21 %
13.01.2019 14:00 8,4 C 7,8 C 7,2 C 99 % 1001,6 hPa 0,2 l/m 0,00 h 0,10 h 20 W/m 22,6 km/h (4 Bft) 96,97 %
13.01.2019 15:00 8,4 C 7,8 C 7,2 C 99 % 1001,1 hPa 0,4 l/m 0,00 h 0,27 h 13 W/m 21,5 km/h (4 Bft) 96,78 %
13.01.2019 16:00 8,3 C 7,8 C 7,2 C 99 % 1000,8 hPa 0,2 l/m 0,00 h 0,23 h 4 W/m 25,4 km/h (4 Bft) 97,32 %
13.01.2019 17:00 8,3 C 7,8 C 7,2 C 99 % 1000,6 hPa 0,0 l/m 0,00 h 0,13 h 0 W/m 24,4 km/h (4 Bft) 98,50 %
13.01.2019 18:00 8,2 C 7,4 C 6,9 C 99 % 1000,0 hPa 0,2 l/m 0,00 h 0,70 h 0 W/m 25,4 km/h (4 Bft) 96,85 %
13.01.2019 19:00 8,1 C 7,2 C 6,7 C 97 % 999,9 hPa 0,0 l/m 0,00 h 0,70 h 0 W/m 27,7 km/h (4 Bft) 96,95 %
13.01.2019 20:00 7,1 C 5,8 C 5,2 C 95 % 1000,8 hPa 1,2 l/m 0,00 h 0,53 h 0 W/m 33,0 km/h (5 Bft) 99,40 %
13.01.2019 21:00 6,9 C 6,2 C 5,5 C 95 % 1001,2 hPa 0,0 l/m 0,00 h 0,00 h 0 W/m 27,9 km/h (4 Bft) 94,30 %
13.01.2019 22:00 7,0 C 6,3 C 5,2 C 94 % 1001,6 hPa 0,0 l/m 0,00 h 0,00 h 0 W/m 27,8 km/h (4 Bft) 98,65 %
13.01.2019 23:00 6,6 C 5,7 C 4,7 C 93 % 1002,1 hPa 0,4 l/m 0,00 h 0,23 h 0 W/m 24,6 km/h (4 Bft) 99,22 %
Min-Datum _ 10.01.19 10.01.19 10.01.19 09.01.19 13.01.19 - - - - 07.01.19 13.01.19
_ Min-Zeit 06:52 01:48 01:42 15:32 19:02 - - - - 00:00 00:02
Minimum _ -1,1 C -1,7 C -2,2 C 71 % 999,6 hPa - - - - 0,0 km/h (0 Bft) 10,00 %
Max-Datum _ 13.01.19 09.01.19 09.01.19 11.01.19 07.01.19 08.01.19 09.01.19 13.01.19 09.01.19 09.01.19 07.01.19
_ Max-Zeit 13:08 12:02 12:36 15:20 03:04 14:34 12:08 05:19 12:44 13:18 00:04
Maximum _ 8,4 C 12,2 C 9,4 C 100 % 1032,5 hPa 1,6 l/m 0,07 h 0,08 h 323 W/m 57,9 km/h
N-NW (7 Bft)
100,00 %
Durchschnitt _ 4,7 C 4,1 C 3,4 C 95 % 1018,0 hPa #20,6 l/m #4:00 h #33:24 h 44 W/m 13,9 km/h (3 Bft) 96,92 %
© 2019 W. Hausmann